sensor_id;sensor_type;location;lat;lon;timestamp;pressure;altitude;pressure_sealevel;temperature;humidity
74433;BME280;62865;53.146;23.172;2023-06-01T00:02:10;1023.2;;;14.7;44.7
74433;BME280;62865;53.146;23.172;2023-06-01T00:06:50;1023.2;;;14.6;44.6
74433;BME280;62865;53.146;23.172;2023-06-01T00:12:24;1023.1;;;14.6;45.5
74433;BME280;62865;53.146;23.172;2023-06-01T00:17:26;1023.1;;;14.5;45.3
74433;BME280;62865;53.146;23.172;2023-06-01T00:21:56;1023.1;;;14.4;45.2
74433;BME280;62865;53.146;23.172;2023-06-01T00:27:10;1023;;;14.4;45.9
74433;BME280;62865;53.146;23.172;2023-06-01T00:31:48;1023;;;14.4;45.5
74433;BME280;62865;53.146;23.172;2023-06-01T00:36:54;1023.1;;;14.4;44.9
74433;BME280;62865;53.146;23.172;2023-06-01T00:42:24;1023.1;;;14.4;44.8
74433;BME280;62865;53.146;23.172;2023-06-01T00:47:04;1023;;;14.4;44.6
74433;BME280;62865;53.146;23.172;2023-06-01T00:52:24;1023;;;14.4;44.9
74433;BME280;62865;53.146;23.172;2023-06-01T00:56:56;1022.9;;;14.4;45
74433;BME280;62865;53.146;23.172;2023-06-01T01:02:24;1022.9;;;14.4;44.3
74433;BME280;62865;53.146;23.172;2023-06-01T01:06:57;1022.9;;;14.5;44.2
74433;BME280;62865;53.146;23.172;2023-06-01T01:11:46;1022.9;;;14.5;44.7
74433;BME280;62865;53.146;23.172;2023-06-01T01:17:09;1022.8;;;14.4;45.2
74433;BME280;62865;53.146;23.172;2023-06-01T01:22:20;1022.8;;;14.3;45.8
74433;BME280;62865;53.146;23.172;2023-06-01T01:27:27;1022.8;;;14.3;46
74433;BME280;62865;53.146;23.172;2023-06-01T01:32:24;1022.7;;;14.2;46.7
74433;BME280;62865;53.146;23.172;2023-06-01T01:37:24;1022.7;;;14;47.3
74433;BME280;62865;53.146;23.172;2023-06-01T01:41:56;1022.7;;;13.9;47.8
74433;BME280;62865;53.146;23.172;2023-06-01T01:46:57;1022.6;;;13.8;48.1
74433;BME280;62865;53.146;23.172;2023-06-01T01:52:04;1022.6;;;13.6;48.4
74433;BME280;62865;53.146;23.172;2023-06-01T01:57:26;1022.5;;;13.5;48.8
74433;BME280;62865;53.146;23.172;2023-06-01T02:01:38;1022.5;;;13.4;49.2
74433;BME280;62865;53.146;23.172;2023-06-01T02:07:06;1022.5;;;13.2;49.5
74433;BME280;62865;53.146;23.172;2023-06-01T02:12:12;1022.5;;;13.1;49.8
74433;BME280;62865;53.146;23.172;2023-06-01T02:17:26;1022.6;;;13.1;50.1
74433;BME280;62865;53.146;23.172;2023-06-01T02:21:50;1022.5;;;13;50.4
74433;BME280;62865;53.146;23.172;2023-06-01T02:27:04;1022.5;;;12.9;50.6
74433;BME280;62865;53.146;23.172;2023-06-01T02:32:10;1022.5;;;12.9;51.1
74433;BME280;62865;53.146;23.172;2023-06-01T02:36:50;1022.5;;;12.9;51.3
74433;BME280;62865;53.146;23.172;2023-06-01T02:42:24;1022.5;;;12.9;51.3
74433;BME280;62865;53.146;23.172;2023-06-01T02:47:26;1022.4;;;12.9;51.2
74433;BME280;62865;53.146;23.172;2023-06-01T02:51:50;1022.4;;;13;50.7
74433;BME280;62865;53.146;23.172;2023-06-01T02:57:10;1022.4;;;13.3;49.9
74433;BME280;62865;53.146;23.172;2023-06-01T03:02:04;1022.4;;;13.5;49.2
74433;BME280;62865;53.146;23.172;2023-06-01T03:06:56;1022.4;;;13.7;48.6
74433;BME280;62865;53.146;23.172;2023-06-01T03:12:26;1022.3;;;14;48.2
74433;BME280;62865;53.146;23.172;2023-06-01T03:16:40;1022.3;;;14.1;47.5
74433;BME280;62865;53.146;23.172;2023-06-01T03:22:24;1022.2;;;14.3;46.7
74433;BME280;62865;53.146;23.172;2023-06-01T03:27:10;1022.2;;;14.4;46.2
74433;BME280;62865;53.146;23.172;2023-06-01T03:32:26;1022.2;;;14.5;46
74433;BME280;62865;53.146;23.172;2023-06-01T03:37:10;1022.1;;;14.6;45.8
74433;BME280;62865;53.146;23.172;2023-06-01T03:41:38;1022;;;14.7;45.6
74433;BME280;62865;53.146;23.172;2023-06-01T03:47:10;1022;;;14.8;45.4
74433;BME280;62865;53.146;23.172;2023-06-01T03:52:18;1022;;;14.9;44.9
74433;BME280;62865;53.146;23.172;2023-06-01T03:57:24;1021.9;;;15.1;44.7
74433;BME280;62865;53.146;23.172;2023-06-01T04:02:26;1021.9;;;15.2;44.3
74433;BME280;62865;53.146;23.172;2023-06-01T04:07:26;1021.8;;;15.4;44
74433;BME280;62865;53.146;23.172;2023-06-01T04:12:10;1021.8;;;15.5;43.7
74433;BME280;62865;53.146;23.172;2023-06-01T04:16:56;1021.8;;;15.6;43.3
74433;BME280;62865;53.146;23.172;2023-06-01T04:22:00;1021.7;;;15.8;43.1
74433;BME280;62865;53.146;23.172;2023-06-01T04:27:26;1021.6;;;15.9;42.7
74433;BME280;62865;53.146;23.172;2023-06-01T04:31:48;1021.6;;;16.1;42.5
74433;BME280;62865;53.146;23.172;2023-06-01T04:37:18;1021.6;;;16.2;42.2
74433;BME280;62865;53.146;23.172;2023-06-01T04:42:08;1021.6;;;16.3;42
74433;BME280;62865;53.146;23.172;2023-06-01T04:47:24;1021.5;;;16.4;41.9
74433;BME280;62865;53.146;23.172;2023-06-01T04:52:00;1021.5;;;16.5;41.9
74433;BME280;62865;53.146;23.172;2023-06-01T04:57:24;1021.5;;;16.7;41.7
74433;BME280;62865;53.146;23.172;2023-06-01T05:02:24;1021.5;;;16.8;41.4
74433;BME280;62865;53.146;23.172;2023-06-01T05:06:50;1021.4;;;17;41.2
74433;BME280;62865;53.146;23.172;2023-06-01T05:12:10;1021.4;;;17.1;41
74433;BME280;62865;53.146;23.172;2023-06-01T05:16:36;1021.4;;;17.2;40.8
74433;BME280;62865;53.146;23.172;2023-06-01T05:21:48;1021.4;;;17.3;40.8
74433;BME280;62865;53.146;23.172;2023-06-01T05:27:00;1021.4;;;17.5;40.6
74433;BME280;62865;53.146;23.172;2023-06-01T05:32:00;1021.4;;;17.6;40.6
74433;BME280;62865;53.146;23.172;2023-06-01T05:36:36;1021.4;;;17.8;40.7
74433;BME280;62865;53.146;23.172;2023-06-01T05:42:22;1021.3;;;18;40.6
74433;BME280;62865;53.146;23.172;2023-06-01T05:47:10;1021.3;;;18.1;40.4
74433;BME280;62865;53.146;23.172;2023-06-01T05:52:24;1021.2;;;18.3;40.1
74433;BME280;62865;53.146;23.172;2023-06-01T05:56:36;1021.2;;;18.5;39.9
74433;BME280;62865;53.146;23.172;2023-06-01T06:01:50;1021.1;;;18.4;39.9
74433;BME280;62865;53.146;23.172;2023-06-01T06:07:06;1021.1;;;18.6;39.7
74433;BME280;62865;53.146;23.172;2023-06-01T06:12:00;1021.1;;;18.7;39.6
74433;BME280;62865;53.146;23.172;2023-06-01T06:17:24;1021.1;;;18.9;39.9
74433;BME280;62865;53.146;23.172;2023-06-01T06:22:16;1021.1;;;19.1;39.7
74433;BME280;62865;53.146;23.172;2023-06-01T06:32:08;1021;;;19.6;39.4
74433;BME280;62865;53.146;23.172;2023-06-01T06:37:03;1020.9;;;19.6;39.4
74433;BME280;62865;53.146;23.172;2023-06-01T06:41:54;1020.9;;;19.8;39.7
74433;BME280;62865;53.146;23.172;2023-06-01T06:46:48;1020.8;;;19.9;39.5
74433;BME280;62865;53.146;23.172;2023-06-01T06:52:02;1020.8;;;20.1;39.3
74433;BME280;62865;53.146;23.172;2023-06-01T06:57:10;1020.8;;;20.3;39.3
74433;BME280;62865;53.146;23.172;2023-06-01T07:01:36;1020.8;;;20.4;39
74433;BME280;62865;53.146;23.172;2023-06-01T07:07:24;1020.7;;;20.6;39.1
74433;BME280;62865;53.146;23.172;2023-06-01T07:11:56;1020.7;;;20.8;39
74433;BME280;62865;53.146;23.172;2023-06-01T07:17:14;1020.7;;;20.9;39
74433;BME280;62865;53.146;23.172;2023-06-01T07:22:00;1020.6;;;20.9;39.1
74433;BME280;62865;53.146;23.172;2023-06-01T07:27:24;1020.6;;;21.2;39.2
74433;BME280;62865;53.146;23.172;2023-06-01T07:32:24;1020.6;;;21.5;38.4
74433;BME280;62865;53.146;23.172;2023-06-01T07:36:48;1020.5;;;21.6;38
74433;BME280;62865;53.146;23.172;2023-06-01T07:42:10;1020.5;;;21.7;37.3
74433;BME280;62865;53.146;23.172;2023-06-01T07:46:54;1020.5;;;21.9;36.6
74433;BME280;62865;53.146;23.172;2023-06-01T07:51:42;1020.4;;;22;36.6
74433;BME280;62865;53.146;23.172;2023-06-01T07:56:46;1020.4;;;22.1;36.2
74433;BME280;62865;53.146;23.172;2023-06-01T08:01:36;1020.4;;;22.3;35
74433;BME280;62865;53.146;23.172;2023-06-01T08:06:46;1020.4;;;22.4;34.2
74433;BME280;62865;53.146;23.172;2023-06-01T08:12:22;1020.4;;;22.6;34
74433;BME280;62865;53.146;23.172;2023-06-01T08:17:20;1020.3;;;22.7;34.6
74433;BME280;62865;53.146;23.172;2023-06-01T08:22:26;1020.3;;;22.9;34.1
74433;BME280;62865;53.146;23.172;2023-06-01T08:26:56;1020.2;;;22.9;33.8
74433;BME280;62865;53.146;23.172;2023-06-01T08:31:38;1020.1;;;22.9;33.8
74433;BME280;62865;53.146;23.172;2023-06-01T08:36:56;1020.1;;;22.9;34.2
74433;BME280;62865;53.146;23.172;2023-06-01T08:42:20;1020.1;;;23;33.9
74433;BME280;62865;53.146;23.172;2023-06-01T08:47:24;1020;;;23.2;33.5
74433;BME280;62865;53.146;23.172;2023-06-01T08:52:18;1020;;;23.4;33.2
74433;BME280;62865;53.146;23.172;2023-06-01T08:56:50;1019.9;;;23.6;32.9
74433;BME280;62865;53.146;23.172;2023-06-01T09:02:10;1019.9;;;23.8;32.7
74433;BME280;62865;53.146;23.172;2023-06-01T09:07:04;1019.8;;;23.7;31.5
74433;BME280;62865;53.146;23.172;2023-06-01T09:11:38;1019.7;;;23.7;31.8
74433;BME280;62865;53.146;23.172;2023-06-01T09:17:26;1019.7;;;23.8;31.3
74433;BME280;62865;53.146;23.172;2023-06-01T09:22:18;1019.7;;;24;31.2
74433;BME280;62865;53.146;23.172;2023-06-01T09:27:26;1019.7;;;24.1;30.5
74433;BME280;62865;53.146;23.172;2023-06-01T09:31:37;1019.6;;;24.2;30.1
74433;BME280;62865;53.146;23.172;2023-06-01T09:37:26;1019.6;;;24.3;28.8
74433;BME280;62865;53.146;23.172;2023-06-01T09:41:46;1019.6;;;24.3;29.2
74433;BME280;62865;53.146;23.172;2023-06-01T09:46:46;1019.5;;;24.3;29.9
74433;BME280;62865;53.146;23.172;2023-06-01T09:51:51;1019.5;;;24.5;30.1
74433;BME280;62865;53.146;23.172;2023-06-01T09:57:19;1019.5;;;24.6;30.2
74433;BME280;62865;53.146;23.172;2023-06-01T10:02:26;1019.5;;;24.5;30
74433;BME280;62865;53.146;23.172;2023-06-01T10:07:27;1019.4;;;24.5;30.5
74433;BME280;62865;53.146;23.172;2023-06-01T10:12:26;1019.4;;;24.6;30.1
74433;BME280;62865;53.146;23.172;2023-06-01T10:16:56;1019.3;;;24.8;29.6
74433;BME280;62865;53.146;23.172;2023-06-01T10:21:56;1019.3;;;25;30.1
74433;BME280;62865;53.146;23.172;2023-06-01T10:26:52;1019.2;;;25.1;30.3
74433;BME280;62865;53.146;23.172;2023-06-01T10:32:42;1019.2;;;25.2;29.7
74433;BME280;62865;53.146;23.172;2023-06-01T10:37:20;1019.3;;;25.2;27.2
74433;BME280;62865;53.146;23.172;2023-06-01T10:42:48;1019.1;;;25.3;27.2
74433;BME280;62865;53.146;23.172;2023-06-01T10:47:15;1019.1;;;25.3;27.4
74433;BME280;62865;53.146;23.172;2023-06-01T10:52:24;1019.1;;;25.4;26.7
74433;BME280;62865;53.146;23.172;2023-06-01T10:57:18;1019.1;;;25.5;26.6
74433;BME280;62865;53.146;23.172;2023-06-01T11:02:03;1019;;;25.7;26.4
74433;BME280;62865;53.146;23.172;2023-06-01T11:07:41;1018.9;;;25.8;26.6
74433;BME280;62865;53.146;23.172;2023-06-01T11:11:58;1018.9;;;26;26.8
74433;BME280;62865;53.146;23.172;2023-06-01T11:17:25;1018.9;;;26.2;26.7
74433;BME280;62865;53.146;23.172;2023-06-01T11:22:24;1018.8;;;26.2;26.5
74433;BME280;62865;53.146;23.172;2023-06-01T11:26:37;1018.7;;;26.4;26.1
74433;BME280;62865;53.146;23.172;2023-06-01T11:32:08;1018.7;;;26.3;25.9
74433;BME280;62865;53.146;23.172;2023-06-01T11:36:49;1018.7;;;26.1;26.3
74433;BME280;62865;53.146;23.172;2023-06-01T11:41:38;1018.6;;;26.1;26.6
74433;BME280;62865;53.146;23.172;2023-06-01T11:47:27;1018.6;;;26.1;26.4
74433;BME280;62865;53.146;23.172;2023-06-01T11:52:16;1018.5;;;26.3;26
74433;BME280;62865;53.146;23.172;2023-06-01T11:57:24;1018.4;;;26.5;25.6
74433;BME280;62865;53.146;23.172;2023-06-01T12:02:18;1018.4;;;26.7;25.2
74433;BME280;62865;53.146;23.172;2023-06-01T12:07:24;1018.3;;;26.8;24.9
74433;BME280;62865;53.146;23.172;2023-06-01T12:11:48;1018.3;;;27;24.3
74433;BME280;62865;53.146;23.172;2023-06-01T12:17:16;1018.3;;;26.7;23.6
74433;BME280;62865;53.146;23.172;2023-06-01T12:22:08;1018.3;;;26.5;23.8
74433;BME280;62865;53.146;23.172;2023-06-01T12:27:03;1018.3;;;26.4;24.6
74433;BME280;62865;53.146;23.172;2023-06-01T12:32:24;1018.2;;;26.3;24.6
74433;BME280;62865;53.146;23.172;2023-06-01T12:37:24;1018.2;;;26.6;24.3
74433;BME280;62865;53.146;23.172;2023-06-01T12:42:33;1018.2;;;26.8;24.2
74433;BME280;62865;53.146;23.172;2023-06-01T12:46:55;1018;;;26.8;24.6
74433;BME280;62865;53.146;23.172;2023-06-01T12:51:42;1018.1;;;27.2;24.1
74433;BME280;62865;53.146;23.172;2023-06-01T12:56:36;1018.1;;;27.6;24.4
74433;BME280;62865;53.146;23.172;2023-06-01T13:02:28;1018.1;;;28.1;23.8
74433;BME280;62865;53.146;23.172;2023-06-01T13:07:02;1018;;;28.2;23.3
74433;BME280;62865;53.146;23.172;2023-06-01T13:12:18;1017.9;;;28.2;23.3
74433;BME280;62865;53.146;23.172;2023-06-01T13:17:08;1018;;;28.5;23.1
74433;BME280;62865;53.146;23.172;2023-06-01T13:22:26;1017.9;;;28.5;23.1
74433;BME280;62865;53.146;23.172;2023-06-01T13:26:50;1017.8;;;28.4;23.9
74433;BME280;62865;53.146;23.172;2023-06-01T13:32:26;1017.8;;;28.1;24.2
74433;BME280;62865;53.146;23.172;2023-06-01T13:37:26;1017.8;;;28.4;24.1
74433;BME280;62865;53.146;23.172;2023-06-01T13:41:36;1017.8;;;28.7;24
74433;BME280;62865;53.146;23.172;2023-06-01T13:47:10;1017.8;;;28.2;24.7
74433;BME280;62865;53.146;23.172;2023-06-01T13:51:54;1017.7;;;28.3;24.9
74433;BME280;62865;53.146;23.172;2023-06-01T13:56:36;1017.6;;;28.6;25
74433;BME280;62865;53.146;23.172;2023-06-01T14:02:03;1017.5;;;28.8;24.6
74433;BME280;62865;53.146;23.172;2023-06-01T14:06:48;1017.7;;;28.6;24.4
74433;BME280;62865;53.146;23.172;2023-06-01T14:12:04;1017.6;;;28.8;24.6
74433;BME280;62865;53.146;23.172;2023-06-01T14:17:24;1017.6;;;28.8;24.7
74433;BME280;62865;53.146;23.172;2023-06-01T14:22:10;1017.5;;;29.1;24.7
74433;BME280;62865;53.146;23.172;2023-06-01T14:27:24;1017.5;;;29.3;24.3
74433;BME280;62865;53.146;23.172;2023-06-01T14:31:48;1017.4;;;28.9;24.7
74433;BME280;62865;53.146;23.172;2023-06-01T14:36:36;1017.3;;;28.6;25.1
74433;BME280;62865;53.146;23.172;2023-06-01T14:42:08;1017.3;;;28.5;25.4
74433;BME280;62865;53.146;23.172;2023-06-01T14:47:00;1017.3;;;28.6;25.4
74433;BME280;62865;53.146;23.172;2023-06-01T14:52:26;1017.2;;;28.6;25.4
74433;BME280;62865;53.146;23.172;2023-06-01T14:57:18;1017.2;;;28.9;25.3
74433;BME280;62865;53.146;23.172;2023-06-01T15:01:36;1017.2;;;29.3;25
74433;BME280;62865;53.146;23.172;2023-06-01T15:07:10;1017.1;;;29.8;24.4
74433;BME280;62865;53.146;23.172;2023-06-01T15:12:02;1017.1;;;29.8;24.4
74433;BME280;62865;53.146;23.172;2023-06-01T15:16:54;1017.1;;;29.8;24.4
74433;BME280;62865;53.146;23.172;2023-06-01T15:21:36;1017.1;;;29.6;24.7
74433;BME280;62865;53.146;23.172;2023-06-01T15:27:02;1017.1;;;29.4;24.8
74433;BME280;62865;53.146;23.172;2023-06-01T15:32:10;1017.1;;;29.2;25.1
74433;BME280;62865;53.146;23.172;2023-06-01T15:36:36;1017;;;29.4;24.8
74433;BME280;62865;53.146;23.172;2023-06-01T15:42:26;1017;;;28.6;25.6
74433;BME280;62865;53.146;23.172;2023-06-01T15:46:56;1016.9;;;28.6;25.7
74433;BME280;62865;53.146;23.172;2023-06-01T15:51:48;1016.9;;;29.2;25.2
74433;BME280;62865;53.146;23.172;2023-06-01T15:56:36;1016.8;;;29.4;24.9
74433;BME280;62865;53.146;23.172;2023-06-01T16:02:26;1016.7;;;29.5;24.4
74433;BME280;62865;53.146;23.172;2023-06-01T16:07:26;1016.8;;;29.4;24.6
74433;BME280;62865;53.146;23.172;2023-06-01T16:12:06;1016.7;;;29.6;24.4
74433;BME280;62865;53.146;23.172;2023-06-01T16:16:38;1016.7;;;29.6;24.1
74433;BME280;62865;53.146;23.172;2023-06-01T16:21:48;1016.7;;;29.6;24
74433;BME280;62865;53.146;23.172;2023-06-01T16:26:54;1016.7;;;29.2;23.9
74433;BME280;62865;53.146;23.172;2023-06-01T16:32:02;1016.7;;;28.4;24.5
74433;BME280;62865;53.146;23.172;2023-06-01T16:37:02;1016.6;;;27.9;25.2
74433;BME280;62865;53.146;23.172;2023-06-01T16:41:36;1016.7;;;27.3;27.8
74433;BME280;62865;53.146;23.172;2023-06-01T16:47:26;1016.6;;;26.6;29.6
74433;BME280;62865;53.146;23.172;2023-06-01T16:52:02;1016.6;;;26.2;30.3
74433;BME280;62865;53.146;23.172;2023-06-01T16:57:26;1016.6;;;25.9;31.3
74433;BME280;62865;53.146;23.172;2023-06-01T17:01:48;1016.6;;;25.7;31.8
74433;BME280;62865;53.146;23.172;2023-06-01T17:07:24;1016.6;;;25.4;32.5
74433;BME280;62865;53.146;23.172;2023-06-01T17:12:07;1016.6;;;25.2;33
74433;BME280;62865;53.146;23.172;2023-06-01T17:16:48;1016.6;;;24.9;34
74433;BME280;62865;53.146;23.172;2023-06-01T17:22:26;1016.6;;;24.7;35
74433;BME280;62865;53.146;23.172;2023-06-01T17:27:18;1016.6;;;24.7;35.3
74433;BME280;62865;53.146;23.172;2023-06-01T17:31:42;1016.6;;;24.6;35.8
74433;BME280;62865;53.146;23.172;2023-06-01T17:37:10;1016.6;;;24.5;36
74433;BME280;62865;53.146;23.172;2023-06-01T17:42:00;1016.6;;;24.4;37
74433;BME280;62865;53.146;23.172;2023-06-01T17:46:58;1016.6;;;24.2;38
74433;BME280;62865;53.146;23.172;2023-06-01T17:51:36;1016.5;;;24;38.8
74433;BME280;62865;53.146;23.172;2023-06-01T17:57:04;1016.5;;;23.7;39.4
74433;BME280;62865;53.146;23.172;2023-06-01T18:02:26;1016.5;;;23.5;39.9
74433;BME280;62865;53.146;23.172;2023-06-01T18:06:48;1016.5;;;23.4;40.5
74433;BME280;62865;53.146;23.172;2023-06-01T18:12:26;1016.6;;;23.2;41.1
74433;BME280;62865;53.146;23.172;2023-06-01T18:16:42;1016.7;;;23;41.5
74433;BME280;62865;53.146;23.172;2023-06-01T18:21:48;1016.7;;;22.8;41.8
74433;BME280;62865;53.146;23.172;2023-06-01T18:26:50;1016.7;;;22.6;41.8
74433;BME280;62865;53.146;23.172;2023-06-01T18:32:04;1016.8;;;22.5;41.8
74433;BME280;62865;53.146;23.172;2023-06-01T18:37:24;1016.8;;;22.2;41.8
74433;BME280;62865;53.146;23.172;2023-06-01T18:42:24;1016.8;;;22.1;42
74433;BME280;62865;53.146;23.172;2023-06-01T18:47:24;1016.8;;;21.9;42.4
74433;BME280;62865;53.146;23.172;2023-06-01T18:51:37;1016.9;;;21.7;42.9
74433;BME280;62865;53.146;23.172;2023-06-01T18:56:42;1016.9;;;21.6;43.2
74433;BME280;62865;53.146;23.172;2023-06-01T19:01:50;1016.9;;;21.4;43.8
74433;BME280;62865;53.146;23.172;2023-06-01T19:07:27;1017;;;21.3;44.3
74433;BME280;62865;53.146;23.172;2023-06-01T19:12:00;1017;;;21.1;44.9
74433;BME280;62865;53.146;23.172;2023-06-01T19:17:16;1017;;;20.9;45.4
74433;BME280;62865;53.146;23.172;2023-06-01T19:21:52;1017;;;20.8;45.7
74433;BME280;62865;53.146;23.172;2023-06-01T19:27:24;1017;;;20.7;46
74433;BME280;62865;53.146;23.172;2023-06-01T19:32:02;1017;;;20.5;46.4
74433;BME280;62865;53.146;23.172;2023-06-01T19:37:16;1017;;;20.4;46.6
74433;BME280;62865;53.146;23.172;2023-06-01T19:42:42;1017;;;20.3;46.9
74433;BME280;62865;53.146;23.172;2023-06-01T19:46:48;1017;;;20.2;47.3
74433;BME280;62865;53.146;23.172;2023-06-01T19:52:22;1016.9;;;20.1;47.6
74433;BME280;62865;53.146;23.172;2023-06-01T19:57:26;1016.9;;;20.1;47.7
74433;BME280;62865;53.146;23.172;2023-06-01T20:01:37;1016.9;;;20;48
74433;BME280;62865;53.146;23.172;2023-06-01T20:06:51;1016.9;;;19.9;48.4
74433;BME280;62865;53.146;23.172;2023-06-01T20:12:02;1016.9;;;19.8;48.7
74433;BME280;62865;53.146;23.172;2023-06-01T20:16:55;1017;;;19.7;48.9
74433;BME280;62865;53.146;23.172;2023-06-01T20:22:27;1017;;;19.7;49.2
74433;BME280;62865;53.146;23.172;2023-06-01T20:27:18;1017;;;19.6;49.4
74433;BME280;62865;53.146;23.172;2023-06-01T20:32:26;1017;;;19.6;49.5
74433;BME280;62865;53.146;23.172;2023-06-01T20:36:36;1016.9;;;19.6;49.7
74433;BME280;62865;53.146;23.172;2023-06-01T20:42:28;1016.9;;;19.6;49.6
74433;BME280;62865;53.146;23.172;2023-06-01T20:46:54;1016.9;;;19.6;49.7
74433;BME280;62865;53.146;23.172;2023-06-01T20:51:37;1016.9;;;19.6;49.7
74433;BME280;62865;53.146;23.172;2023-06-01T20:57:02;1016.9;;;19.6;49.8
74433;BME280;62865;53.146;23.172;2023-06-01T21:02:18;1016.9;;;19.5;49.8
74433;BME280;62865;53.146;23.172;2023-06-01T21:07:26;1016.9;;;19.5;49.7
74433;BME280;62865;53.146;23.172;2023-06-01T21:12:26;1016.9;;;19.4;49.9
74433;BME280;62865;53.146;23.172;2023-06-01T21:17:26;1016.9;;;19.3;50.1
74433;BME280;62865;53.146;23.172;2023-06-01T21:21:42;1016.8;;;19.2;50.5
74433;BME280;62865;53.146;23.172;2023-06-01T21:26:36;1016.8;;;19.1;50.9
74433;BME280;62865;53.146;23.172;2023-06-01T21:32:02;1016.8;;;19;51.5
74433;BME280;62865;53.146;23.172;2023-06-01T21:37:26;1016.9;;;18.9;52
74433;BME280;62865;53.146;23.172;2023-06-01T21:41:36;1016.9;;;18.8;52.5
74433;BME280;62865;53.146;23.172;2023-06-01T21:47:18;1016.9;;;18.8;52.5
74433;BME280;62865;53.146;23.172;2023-06-01T21:52:10;1016.9;;;18.8;52.9
74433;BME280;62865;53.146;23.172;2023-06-01T21:57:24;1016.8;;;18.6;53.2
74433;BME280;62865;53.146;23.172;2023-06-01T22:02:02;1016.8;;;18.5;53.8
74433;BME280;62865;53.146;23.172;2023-06-01T22:07:14;1016.8;;;18.3;54.5
74433;BME280;62865;53.146;23.172;2023-06-01T22:12:08;1016.9;;;18.2;55.1
74433;BME280;62865;53.146;23.172;2023-06-01T22:16:36;1016.9;;;18.1;55.6
74433;BME280;62865;53.146;23.172;2023-06-01T22:22:25;1016.9;;;18;56.1
74433;BME280;62865;53.146;23.172;2023-06-01T22:27:24;1017;;;17.9;56.9
74433;BME280;62865;53.146;23.172;2023-06-01T22:31:46;1017;;;17.9;57.3
74433;BME280;62865;53.146;23.172;2023-06-01T22:37:08;1017;;;17.9;57.3
74433;BME280;62865;53.146;23.172;2023-06-01T22:41:36;1017.1;;;17.9;57.2
74433;BME280;62865;53.146;23.172;2023-06-01T22:46:36;1017.1;;;17.9;57.4
74433;BME280;62865;53.146;23.172;2023-06-01T22:52:24;1017.1;;;17.9;57.7
74433;BME280;62865;53.146;23.172;2023-06-01T22:56:38;1017.1;;;17.9;58.1
74433;BME280;62865;53.146;23.172;2023-06-01T23:02:24;1017.1;;;17.8;58.6
74433;BME280;62865;53.146;23.172;2023-06-01T23:06:52;1017.1;;;17.7;59.7
74433;BME280;62865;53.146;23.172;2023-06-01T23:12:00;1017.2;;;17.7;59.9
74433;BME280;62865;53.146;23.172;2023-06-01T23:17:09;1017.2;;;17.7;60.1
74433;BME280;62865;53.146;23.172;2023-06-01T23:21:36;1017.2;;;17.6;61
74433;BME280;62865;53.146;23.172;2023-06-01T23:27:22;1017.2;;;17.4;61.7
74433;BME280;62865;53.146;23.172;2023-06-01T23:32:14;1017.2;;;17.3;62.1
74433;BME280;62865;53.146;23.172;2023-06-01T23:36:52;1017.2;;;17.2;62.5
74433;BME280;62865;53.146;23.172;2023-06-01T23:42:08;1017.2;;;17.1;63.2
74433;BME280;62865;53.146;23.172;2023-06-01T23:46:58;1017.1;;;17;63.6
74433;BME280;62865;53.146;23.172;2023-06-01T23:51:52;1017.2;;;16.8;64
74433;BME280;62865;53.146;23.172;2023-06-01T23:56:36;1017.3;;;16.8;64.2
